sensor_id;sensor_type;location;lat;lon;timestamp;pressure;altitude;pressure_sealevel;temperature;humidity
6144;BME280;3103;49.492;8.474;2024-02-04T00:00:38;101594.88;;;10.27;93.16
6144;BME280;3103;49.492;8.474;2024-02-04T00:03:05;101593.88;;;10.22;93.38
6144;BME280;3103;49.492;8.474;2024-02-04T00:05:32;101602.97;;;10.34;92.22
6144;BME280;3103;49.492;8.474;2024-02-04T00:07:59;101598.44;;;10.28;92.48
6144;BME280;3103;49.492;8.474;2024-02-04T00:10:26;101593.06;;;10.15;93.08
6144;BME280;3103;49.492;8.474;2024-02-04T00:12:54;101598.84;;;10.31;91.93
6144;BME280;3103;49.492;8.474;2024-02-04T00:15:20;101600.69;;;10.31;91.67
6144;BME280;3103;49.492;8.474;2024-02-04T00:17:47;101594.72;;;10.22;92.77
6144;BME280;3103;49.492;8.474;2024-02-04T00:20:15;101598.84;;;10.31;92.16
6144;BME280;3103;49.492;8.474;2024-02-04T00:22:41;101598.00;;;10.04;93.46
6144;BME280;3103;49.492;8.474;2024-02-04T00:25:08;101605.44;;;10.22;92.65
6144;BME280;3103;49.492;8.474;2024-02-04T00:27:38;101600.47;;;10.19;93.03
6144;BME280;3103;49.492;8.474;2024-02-04T00:30:06;101585.81;;;10.08;93.59
6144;BME280;3103;49.492;8.474;2024-02-04T00:32:34;101587.47;;;10.23;93.17
6144;BME280;3103;49.492;8.474;2024-02-04T00:35:01;101587.88;;;10.20;92.64
6144;BME280;3103;49.492;8.474;2024-02-04T00:37:30;101589.34;;;10.22;93.40
6144;BME280;3103;49.492;8.474;2024-02-04T00:39:56;101588.91;;;10.12;93.38
6144;BME280;3103;49.492;8.474;2024-02-04T00:42:24;101587.06;;;9.99;94.58
6144;BME280;3103;49.492;8.474;2024-02-04T00:44:50;101585.00;;;10.01;94.44
6144;BME280;3103;49.492;8.474;2024-02-04T00:47:17;101582.50;;;9.93;94.58
6144;BME280;3103;49.492;8.474;2024-02-04T00:49:44;101584.56;;;10.04;95.72
6144;BME280;3103;49.492;8.474;2024-02-04T00:52:11;101582.31;;;10.01;95.41
6144;BME280;3103;49.492;8.474;2024-02-04T00:54:38;101570.34;;;9.91;96.10
6144;BME280;3103;49.492;8.474;2024-02-04T00:57:05;101580.03;;;10.05;95.24
6144;BME280;3103;49.492;8.474;2024-02-04T00:59:32;101582.50;;;9.93;95.57
6144;BME280;3103;49.492;8.474;2024-02-04T01:01:59;101582.50;;;10.06;95.61
6144;BME280;3103;49.492;8.474;2024-02-04T01:04:26;101571.38;;;10.03;95.48
6144;BME280;3103;49.492;8.474;2024-02-04T01:06:53;101572.63;;;9.87;95.79
6144;BME280;3103;49.492;8.474;2024-02-04T01:09:30;101575.50;;;9.79;97.14
6144;BME280;3103;49.492;8.474;2024-02-04T01:11:57;101567.66;;;9.64;97.75
6144;BME280;3103;49.492;8.474;2024-02-04T01:14:24;101561.06;;;9.87;97.51
6144;BME280;3103;49.492;8.474;2024-02-04T01:16:51;101561.88;;;9.74;97.90
6144;BME280;3103;49.492;8.474;2024-02-04T01:19:18;101556.09;;;9.90;96.50
6144;BME280;3103;49.492;8.474;2024-02-04T01:21:45;101572.00;;;9.72;97.70
6144;BME280;3103;49.492;8.474;2024-02-04T01:24:12;101583.34;;;9.94;96.85
6144;BME280;3103;49.492;8.474;2024-02-04T01:26:39;101579.63;;;9.95;96.53
6144;BME280;3103;49.492;8.474;2024-02-04T01:29:06;101575.06;;;9.82;97.54
6144;BME280;3103;49.492;8.474;2024-02-04T01:31:33;101580.66;;;9.80;97.35
6144;BME280;3103;49.492;8.474;2024-02-04T01:34:00;101581.69;;;9.79;98.49
6144;BME280;3103;49.492;8.474;2024-02-04T01:36:27;101585.41;;;9.65;98.73
6144;BME280;3103;49.492;8.474;2024-02-04T01:38:54;101583.53;;;9.79;98.04
6144;BME280;3103;49.492;8.474;2024-02-04T01:41:21;101576.13;;;9.88;97.97
6144;BME280;3103;49.492;8.474;2024-02-04T01:43:48;101581.50;;;10.01;96.50
6144;BME280;3103;49.492;8.474;2024-02-04T01:46:16;101582.50;;;9.93;96.62
6144;BME280;3103;49.492;8.474;2024-02-04T01:48:43;101586.44;;;9.97;95.99
6144;BME280;3103;49.492;8.474;2024-02-04T01:51:10;101575.91;;;9.89;96.23
6144;BME280;3103;49.492;8.474;2024-02-04T01:53:40;101575.72;;;9.77;97.23
6144;BME280;3103;49.492;8.474;2024-02-04T01:56:11;101567.44;;;9.79;97.22
6144;BME280;3103;49.492;8.474;2024-02-04T01:58:39;101574.88;;;9.70;96.91
6144;BME280;3103;49.492;8.474;2024-02-04T02:01:06;101575.28;;;9.67;96.85
6144;BME280;3103;49.492;8.474;2024-02-04T02:03:34;101574.03;;;9.70;96.87
6144;BME280;3103;49.492;8.474;2024-02-04T02:06:02;101576.53;;;9.65;96.91
6144;BME280;3103;49.492;8.474;2024-02-04T02:08:30;101574.88;;;9.64;97.24
6144;BME280;3103;49.492;8.474;2024-02-04T02:11:36;101578.59;;;9.63;97.33
6144;BME280;3103;49.492;8.474;2024-02-04T02:14:05;101575.72;;;9.58;97.43
6144;BME280;3103;49.492;8.474;2024-02-04T02:16:37;101564.97;;;9.58;98.07
6144;BME280;3103;49.492;8.474;2024-02-04T02:19:16;101567.25;;;9.61;97.83
6144;BME280;3103;49.492;8.474;2024-02-04T02:21:57;101558.78;;;9.64;97.58
6144;BME280;3103;49.492;8.474;2024-02-04T02:24:32;101551.13;;;9.67;96.84
6144;BME280;3103;49.492;8.474;2024-02-04T02:26:59;101546.81;;;9.60;97.46
6144;BME280;3103;49.492;8.474;2024-02-04T02:29:26;101543.69;;;9.49;97.81
6144;BME280;3103;49.492;8.474;2024-02-04T02:31:53;101545.97;;;9.46;98.28
6144;BME280;3103;49.492;8.474;2024-02-04T02:34:20;101536.06;;;9.46;98.15
6144;BME280;3103;49.492;8.474;2024-02-04T02:37:11;101534.22;;;9.47;97.32
6144;BME280;3103;49.492;8.474;2024-02-04T02:42:23;101544.34;;;9.58;97.22
6144;BME280;3103;49.492;8.474;2024-02-04T02:44:52;101548.06;;;9.57;96.46
6144;BME280;3103;49.492;8.474;2024-02-04T02:47:21;101526.16;;;9.67;96.46
6144;BME280;3103;49.492;8.474;2024-02-04T02:49:51;101534.22;;;9.67;96.12
6144;BME280;3103;49.492;8.474;2024-02-04T02:52:18;101534.41;;;9.65;96.12
6144;BME280;3103;49.492;8.474;2024-02-04T02:54:45;101532.16;;;9.62;96.57
6144;BME280;3103;49.492;8.474;2024-02-04T02:57:12;101542.69;;;9.64;96.29
6144;BME280;3103;49.492;8.474;2024-02-04T02:59:39;101536.88;;;9.67;95.83
6144;BME280;3103;49.492;8.474;2024-02-04T03:02:06;101539.97;;;9.70;95.76
6144;BME280;3103;49.492;8.474;2024-02-04T03:04:32;101546.59;;;9.68;95.54
6144;BME280;3103;49.492;8.474;2024-02-04T03:06:59;101539.38;;;9.68;95.48
6144;BME280;3103;49.492;8.474;2024-02-04T03:09:26;101538.75;;;9.73;95.04
6144;BME280;3103;49.492;8.474;2024-02-04T03:11:53;101527.81;;;9.55;95.95
6144;BME280;3103;49.492;8.474;2024-02-04T03:14:20;101536.91;;;9.60;96.11
6144;BME280;3103;49.492;8.474;2024-02-04T03:16:47;101541.00;;;9.69;95.05
6144;BME280;3103;49.492;8.474;2024-02-04T03:19:16;101535.25;;;9.66;95.65
6144;BME280;3103;49.492;8.474;2024-02-04T03:21:43;101527.59;;;9.56;96.05
6144;BME280;3103;49.492;8.474;2024-02-04T03:24:10;101516.25;;;9.67;95.48
6144;BME280;3103;49.492;8.474;2024-02-04T03:26:37;101522.84;;;9.65;95.49
6144;BME280;3103;49.492;8.474;2024-02-04T03:29:05;101528.25;;;9.58;96.20
6144;BME280;3103;49.492;8.474;2024-02-04T03:31:33;101531.53;;;9.60;96.19
6144;BME280;3103;49.492;8.474;2024-02-04T03:33:59;101534.22;;;9.67;95.55
6144;BME280;3103;49.492;8.474;2024-02-04T03:36:27;101525.75;;;9.50;96.53
6144;BME280;3103;49.492;8.474;2024-02-04T03:38:54;101531.53;;;9.67;96.18
6144;BME280;3103;49.492;8.474;2024-02-04T03:41:21;101529.06;;;9.59;96.16
6144;BME280;3103;49.492;8.474;2024-02-04T03:43:48;101529.69;;;9.61;96.08
6144;BME280;3103;49.492;8.474;2024-02-04T03:46:15;101533.19;;;9.61;96.08
6144;BME280;3103;49.492;8.474;2024-02-04T03:48:43;101527.19;;;9.52;96.27
6144;BME280;3103;49.492;8.474;2024-02-04T03:51:17;101539.78;;;9.59;96.54
6144;BME280;3103;49.492;8.474;2024-02-04T03:53:47;101535.84;;;9.55;96.21
6144;BME280;3103;49.492;8.474;2024-02-04T03:56:14;101530.91;;;9.65;95.84
6144;BME280;3103;49.492;8.474;2024-02-04T03:58:41;101524.09;;;9.56;96.17
6144;BME280;3103;49.492;8.474;2024-02-04T04:01:11;101509.00;;;9.41;97.31
6144;BME280;3103;49.492;8.474;2024-02-04T04:03:43;101525.53;;;9.45;97.30
6144;BME280;3103;49.492;8.474;2024-02-04T04:06:10;101532.34;;;9.61;96.69
6144;BME280;3103;49.492;8.474;2024-02-04T04:08:38;101511.50;;;9.63;96.27
6144;BME280;3103;49.492;8.474;2024-02-04T04:11:07;101520.38;;;9.63;96.08
6144;BME280;3103;49.492;8.474;2024-02-04T04:13:35;101516.25;;;9.54;96.48
6144;BME280;3103;49.492;8.474;2024-02-04T04:16:03;101513.78;;;9.59;96.10
6144;BME280;3103;49.492;8.474;2024-02-04T04:18:30;101513.16;;;9.44;96.94
6144;BME280;3103;49.492;8.474;2024-02-04T04:20:57;101509.44;;;9.51;97.19
6144;BME280;3103;49.492;8.474;2024-02-04T04:23:24;101500.78;;;9.49;96.97
6144;BME280;3103;49.492;8.474;2024-02-04T04:25:51;101506.34;;;9.48;97.05
6144;BME280;3103;49.492;8.474;2024-02-04T04:28:18;101514.19;;;9.49;96.77
6144;BME280;3103;49.492;8.474;2024-02-04T04:30:45;101510.06;;;9.40;96.83
6144;BME280;3103;49.492;8.474;2024-02-04T04:33:12;101506.97;;;9.43;97.50
6144;BME280;3103;49.492;8.474;2024-02-04T04:35:40;101511.09;;;9.46;97.65
6144;BME280;3103;49.492;8.474;2024-02-04T04:38:06;101496.03;;;9.38;97.74
6144;BME280;3103;49.492;8.474;2024-02-04T04:40:33;101517.47;;;9.38;98.30
6144;BME280;3103;49.492;8.474;2024-02-04T04:43:00;101513.34;;;9.42;98.13
6144;BME280;3103;49.492;8.474;2024-02-04T04:45:27;101524.09;;;9.49;98.07
6144;BME280;3103;49.492;8.474;2024-02-04T04:47:54;101517.69;;;9.50;97.50
6144;BME280;3103;49.492;8.474;2024-02-04T04:50:21;101521.22;;;9.44;98.04
6144;BME280;3103;49.492;8.474;2024-02-04T04:52:48;101515.00;;;9.50;97.29
6144;BME280;3103;49.492;8.474;2024-02-04T04:55:15;101511.31;;;9.58;97.55
6144;BME280;3103;49.492;8.474;2024-02-04T04:57:42;101502.63;;;9.56;97.28
6144;BME280;3103;49.492;8.474;2024-02-04T05:00:09;101508.22;;;9.61;96.79
6144;BME280;3103;49.492;8.474;2024-02-04T05:02:37;101516.44;;;9.52;97.12
6144;BME280;3103;49.492;8.474;2024-02-04T05:05:04;101516.84;;;9.56;97.06
6144;BME280;3103;49.492;8.474;2024-02-04T05:07:32;101516.66;;;9.51;97.54
6144;BME280;3103;49.492;8.474;2024-02-04T05:09:59;101511.28;;;9.51;97.46
6144;BME280;3103;49.492;8.474;2024-02-04T05:12:25;101513.34;;;9.42;98.16
6144;BME280;3103;49.492;8.474;2024-02-04T05:14:52;101517.91;;;9.48;97.23
6144;BME280;3103;49.492;8.474;2024-02-04T05:17:19;101510.28;;;9.45;97.25
6144;BME280;3103;49.492;8.474;2024-02-04T05:19:46;101514.81;;;9.45;97.78
6144;BME280;3103;49.492;8.474;2024-02-04T05:22:13;101527.19;;;9.52;97.36
6144;BME280;3103;49.492;8.474;2024-02-04T05:24:41;101513.16;;;9.50;97.08
6144;BME280;3103;49.492;8.474;2024-02-04T05:27:08;101514.00;;;9.44;97.01
6144;BME280;3103;49.492;8.474;2024-02-04T05:29:34;101537.09;;;9.45;97.31
6144;BME280;3103;49.492;8.474;2024-02-04T05:32:01;101530.88;;;9.38;97.60
6144;BME280;3103;49.492;8.474;2024-02-04T05:34:28;101534.81;;;9.42;97.48
6144;BME280;3103;49.492;8.474;2024-02-04T05:36:57;101539.78;;;9.45;96.98
6144;BME280;3103;49.492;8.474;2024-02-04T05:39:24;101537.09;;;9.45;97.18
6144;BME280;3103;49.492;8.474;2024-02-04T05:41:51;101534.81;;;9.42;97.73
6144;BME280;3103;49.492;8.474;2024-02-04T05:44:18;101526.75;;;9.42;97.08
6144;BME280;3103;49.492;8.474;2024-02-04T05:46:45;101522.66;;;9.33;97.84
6144;BME280;3103;49.492;8.474;2024-02-04T05:49:12;101517.88;;;9.42;97.74
6144;BME280;3103;49.492;8.474;2024-02-04T05:51:41;101534.59;;;9.37;97.38
6144;BME280;3103;49.492;8.474;2024-02-04T05:54:08;101540.16;;;9.42;97.48
6144;BME280;3103;49.492;8.474;2024-02-04T05:56:35;101540.16;;;9.42;97.59
6144;BME280;3103;49.492;8.474;2024-02-04T05:59:02;101540.59;;;9.39;97.67
6144;BME280;3103;49.492;8.474;2024-02-04T06:01:29;101538.94;;;9.38;97.71
6144;BME280;3103;49.492;8.474;2024-02-04T06:03:56;101546.38;;;9.30;97.83
6144;BME280;3103;49.492;8.474;2024-02-04T06:06:23;101556.88;;;9.38;97.57
6144;BME280;3103;49.492;8.474;2024-02-04T06:08:50;101549.66;;;9.38;97.45
6144;BME280;3103;49.492;8.474;2024-02-04T06:11:17;101550.28;;;9.34;97.51
6144;BME280;3103;49.492;8.474;2024-02-04T06:13:44;101544.72;;;9.35;97.58
6144;BME280;3103;49.492;8.474;2024-02-04T06:16:11;101545.53;;;9.29;97.71
6144;BME280;3103;49.492;8.474;2024-02-04T06:18:39;101538.72;;;9.33;98.04
6144;BME280;3103;49.492;8.474;2024-02-04T06:21:07;101544.06;;;9.27;97.64
6144;BME280;3103;49.492;8.474;2024-02-04T06:23:34;101545.13;;;9.39;97.20
6144;BME280;3103;49.492;8.474;2024-02-04T06:26:02;101539.97;;;9.37;96.97
6144;BME280;3103;49.492;8.474;2024-02-04T06:28:29;101537.69;;;9.34;97.51
6144;BME280;3103;49.492;8.474;2024-02-04T06:30:56;101534.00;;;9.35;97.37
6144;BME280;3103;49.492;8.474;2024-02-04T06:33:24;101530.69;;;9.40;97.00
6144;BME280;3103;49.492;8.474;2024-02-04T06:35:52;101528.63;;;9.35;96.54
6144;BME280;3103;49.492;8.474;2024-02-04T06:38:19;101521.81;;;9.39;96.68
6144;BME280;3103;49.492;8.474;2024-02-04T06:40:46;101524.91;;;9.36;97.08
6144;BME280;3103;49.492;8.474;2024-02-04T06:43:13;101521.59;;;9.41;96.96
6144;BME280;3103;49.492;8.474;2024-02-04T06:45:40;101524.28;;;9.34;96.83
6144;BME280;3103;49.492;8.474;2024-02-04T06:48:07;101526.13;;;9.40;96.64
6144;BME280;3103;49.492;8.474;2024-02-04T06:50:35;101529.06;;;9.45;96.57
6144;BME280;3103;49.492;8.474;2024-02-04T06:53:02;101520.78;;;9.47;96.61
6144;BME280;3103;49.492;8.474;2024-02-04T06:55:30;101519.75;;;9.35;97.36
6144;BME280;3103;49.492;8.474;2024-02-04T06:57:56;101526.75;;;9.42;97.54
6144;BME280;3103;49.492;8.474;2024-02-04T07:00:23;101528.63;;;9.48;96.94
6144;BME280;3103;49.492;8.474;2024-02-04T07:02:50;101531.31;;;9.35;98.40
6144;BME280;3103;49.492;8.474;2024-02-04T07:05:17;101540.19;;;9.56;97.14
6144;BME280;3103;49.492;8.474;2024-02-04T07:07:44;101543.09;;;9.47;97.37
6144;BME280;3103;49.492;8.474;2024-02-04T07:10:11;101535.22;;;9.39;97.57
6144;BME280;3103;49.492;8.474;2024-02-04T07:12:38;101541.19;;;9.41;97.44
6144;BME280;3103;49.492;8.474;2024-02-04T07:15:06;101545.53;;;9.36;98.60
6144;BME280;3103;49.492;8.474;2024-02-04T07:17:32;101546.38;;;9.36;98.37
6144;BME280;3103;49.492;8.474;2024-02-04T07:19:59;101542.22;;;9.27;99.64
6144;BME280;3103;49.492;8.474;2024-02-04T07:22:29;101537.69;;;9.21;99.67
6144;BME280;3103;49.492;8.474;2024-02-04T07:24:56;101525.31;;;9.20;99.91
6144;BME280;3103;49.492;8.474;2024-02-04T07:27:23;101540.75;;;9.11;99.89
6144;BME280;3103;49.492;8.474;2024-02-04T07:29:50;101541.97;;;9.09;100.00
6144;BME280;3103;49.492;8.474;2024-02-04T07:32:17;101541.78;;;9.10;100.00
6144;BME280;3103;49.492;8.474;2024-02-04T07:34:44;101536.41;;;9.10;100.00
6144;BME280;3103;49.492;8.474;2024-02-04T07:37:10;101531.84;;;8.98;100.00
6144;BME280;3103;49.492;8.474;2024-02-04T07:39:37;101539.25;;;8.96;100.00
6144;BME280;3103;49.492;8.474;2024-02-04T07:42:05;101548.69;;;8.78;100.00
6144;BME280;3103;49.492;8.474;2024-02-04T07:44:31;101549.56;;;8.99;100.00
6144;BME280;3103;49.492;8.474;2024-02-04T07:46:58;101540.94;;;9.03;100.00
6144;BME280;3103;49.492;8.474;2024-02-04T07:49:25;101546.09;;;9.11;99.83
6144;BME280;3103;49.492;8.474;2024-02-04T07:51:52;101540.94;;;9.03;99.78
6144;BME280;3103;49.492;8.474;2024-02-04T07:54:19;101535.34;;;8.91;100.00
6144;BME280;3103;49.492;8.474;2024-02-04T07:56:46;101536.00;;;9.07;99.15
6144;BME280;3103;49.492;8.474;2024-02-04T07:59:13;101540.75;;;9.05;98.79
6144;BME280;3103;49.492;8.474;2024-02-04T08:01:40;101537.22;;;9.04;99.31
6144;BME280;3103;49.492;8.474;2024-02-04T08:04:07;101531.88;;;9.11;98.96
6144;BME280;3103;49.492;8.474;2024-02-04T08:06:37;101537.03;;;9.06;99.34
6144;BME280;3103;49.492;8.474;2024-02-04T08:09:04;101539.75;;;9.19;99.43
6144;BME280;3103;49.492;8.474;2024-02-04T08:11:31;101529.41;;;9.09;99.73
6144;BME280;3103;49.492;8.474;2024-02-04T08:13:58;101529.81;;;9.06;100.00
6144;BME280;3103;49.492;8.474;2024-02-04T08:16:25;101529.81;;;9.13;99.44
6144;BME280;3103;49.492;8.474;2024-02-04T08:18:52;101529.41;;;9.09;99.95
6144;BME280;3103;49.492;8.474;2024-02-04T08:21:19;101534.97;;;9.08;100.00
6144;BME280;3103;49.492;8.474;2024-02-04T08:23:45;101548.38;;;9.08;100.00
6144;BME280;3103;49.492;8.474;2024-02-04T08:26:12;101547.97;;;9.04;100.00
6144;BME280;3103;49.492;8.474;2024-02-04T08:28:39;101546.69;;;8.93;100.00
6144;BME280;3103;49.492;8.474;2024-02-04T08:31:06;101542.59;;;9.04;100.00
6144;BME280;3103;49.492;8.474;2024-02-04T08:33:34;101549.41;;;9.07;100.00
6144;BME280;3103;49.492;8.474;2024-02-04T08:36:01;101543.00;;;9.08;100.00
6144;BME280;3103;49.492;8.474;2024-02-04T08:38:28;101539.75;;;9.19;99.66
6144;BME280;3103;49.492;8.474;2024-02-04T08:40:55;101542.22;;;9.27;99.26
6144;BME280;3103;49.492;8.474;2024-02-04T08:43:22;101548.81;;;9.25;99.27
6144;BME280;3103;49.492;8.474;2024-02-04T08:45:49;101542.19;;;9.14;99.27
6144;BME280;3103;49.492;8.474;2024-02-04T08:48:15;101537.47;;;9.16;99.45
6144;BME280;3103;49.492;8.474;2024-02-04T08:50:42;101540.78;;;9.18;99.33
6144;BME280;3103;49.492;8.474;2024-02-04T08:53:09;101552.50;;;9.04;99.98
6144;BME280;3103;49.492;8.474;2024-02-04T08:55:36;101549.19;;;9.08;100.00
6144;BME280;3103;49.492;8.474;2024-02-04T08:58:03;101545.69;;;9.14;99.71
6144;BME280;3103;49.492;8.474;2024-02-04T09:00:30;101543.66;;;9.16;99.75
6144;BME280;3103;49.492;8.474;2024-02-04T09:02:57;101545.69;;;9.14;99.69
6144;BME280;3103;49.492;8.474;2024-02-04T09:05:24;101550.25;;;9.27;99.18
6144;BME280;3103;49.492;8.474;2024-02-04T09:07:51;101550.06;;;9.22;99.39
6144;BME280;3103;49.492;8.474;2024-02-04T09:10:18;101550.25;;;9.27;98.72
6144;BME280;3103;49.492;8.474;2024-02-04T09:12:45;101557.72;;;9.38;98.10
6144;BME280;3103;49.492;8.474;2024-02-04T09:15:12;101562.28;;;9.51;96.89
6144;BME280;3103;49.492;8.474;2024-02-04T09:17:39;101544.13;;;9.46;95.88
6144;BME280;3103;49.492;8.474;2024-02-04T09:20:07;101542.88;;;9.49;95.29
6144;BME280;3103;49.492;8.474;2024-02-04T09:22:34;101545.13;;;9.52;95.03
6144;BME280;3103;49.492;8.474;2024-02-04T09:25:01;101542.66;;;9.50;95.20
6144;BME280;3103;49.492;8.474;2024-02-04T09:27:30;101534.44;;;9.59;94.94
6144;BME280;3103;49.492;8.474;2024-02-04T09:29:58;101526.97;;;9.67;94.50
6144;BME280;3103;49.492;8.474;2024-02-04T09:32:25;101534.00;;;9.75;93.79
6144;BME280;3103;49.492;8.474;2024-02-04T09:34:52;101534.84;;;9.75;93.83
6144;BME280;3103;49.492;8.474;2024-02-04T09:37:19;101528.44;;;9.63;93.79
6144;BME280;3103;49.492;8.474;2024-02-04T09:39:46;101537.53;;;9.75;93.32
6144;BME280;3103;49.492;8.474;2024-02-04T09:42:19;101534.41;;;9.85;93.17
6144;BME280;3103;49.492;8.474;2024-02-04T09:44:52;101540.41;;;9.87;92.74
6144;BME280;3103;49.492;8.474;2024-02-04T09:47:20;101533.16;;;9.81;92.65
6144;BME280;3103;49.492;8.474;2024-02-04T09:49:47;101535.03;;;9.74;93.15
6144;BME280;3103;49.492;8.474;2024-02-04T09:52:18;101534.22;;;9.73;93.06
6144;BME280;3103;49.492;8.474;2024-02-04T09:54:55;101536.09;;;9.73;93.37
6144;BME280;3103;49.492;8.474;2024-02-04T09:57:23;101535.03;;;9.67;93.75
6144;BME280;3103;49.492;8.474;2024-02-04T09:59:50;101538.75;;;9.73;93.60
6144;BME280;3103;49.492;8.474;2024-02-04T10:02:17;101532.97;;;9.69;93.97
6144;BME280;3103;49.492;8.474;2024-02-04T10:04:48;101538.75;;;9.73;93.94
6144;BME280;3103;49.492;8.474;2024-02-04T10:07:15;101532.75;;;9.77;93.68
6144;BME280;3103;49.492;8.474;2024-02-04T10:09:44;101523.88;;;9.90;93.14
6144;BME280;3103;49.492;8.474;2024-02-04T10:12:11;101518.72;;;9.82;92.88
6144;BME280;3103;49.492;8.474;2024-02-04T10:14:38;101530.69;;;9.93;93.12
6144;BME280;3103;49.492;8.474;2024-02-04T10:17:06;101527.59;;;9.89;93.06
6144;BME280;3103;49.492;8.474;2024-02-04T10:19:33;101520.78;;;10.00;92.71
6144;BME280;3103;49.492;8.474;2024-02-04T10:22:01;101530.44;;;10.07;92.38
6144;BME280;3103;49.492;8.474;2024-02-04T10:24:29;101529.84;;;10.05;91.93
6144;BME280;3103;49.492;8.474;2024-02-04T10:26:56;101544.13;;;9.99;92.63
6144;BME280;3103;49.492;8.474;2024-02-04T10:29:24;101544.50;;;10.16;91.56
6144;BME280;3103;49.492;8.474;2024-02-04T10:31:57;101534.56;;;10.17;90.97
6144;BME280;3103;49.492;8.474;2024-02-04T10:34:27;101539.94;;;10.17;90.86
6144;BME280;3103;49.492;8.474;2024-02-04T10:36:56;101539.53;;;10.33;90.47
6144;BME280;3103;49.492;8.474;2024-02-04T10:39:23;101533.31;;;10.26;90.54
6144;BME280;3103;49.492;8.474;2024-02-04T10:41:55;101534.16;;;10.33;90.15
6144;BME280;3103;49.492;8.474;2024-02-04T10:44:23;101529.22;;;10.30;90.06
6144;BME280;3103;49.492;8.474;2024-02-04T10:46:51;101537.63;;;10.40;89.62
6144;BME280;3103;49.492;8.474;2024-02-04T10:49:19;101545.50;;;10.35;90.17
6144;BME280;3103;49.492;8.474;2024-02-04T10:51:46;101539.50;;;10.39;89.51
6144;BME280;3103;49.492;8.474;2024-02-04T10:54:15;101543.22;;;10.38;89.46
6144;BME280;3103;49.492;8.474;2024-02-04T10:56:44;101532.91;;;10.35;89.31
6144;BME280;3103;49.492;8.474;2024-02-04T10:59:14;101530.44;;;10.34;89.22
6144;BME280;3103;49.492;8.474;2024-02-04T11:01:45;101534.53;;;10.43;89.20
6144;BME280;3103;49.492;8.474;2024-02-04T11:04:16;101523.41;;;10.26;90.47
6144;BME280;3103;49.492;8.474;2024-02-04T11:06:44;101509.59;;;10.29;90.03
6144;BME280;3103;49.492;8.474;2024-02-04T11:09:14;101513.06;;;10.36;89.52
6144;BME280;3103;49.492;8.474;2024-02-04T11:11:43;101504.44;;;10.28;89.95
6144;BME280;3103;49.492;8.474;2024-02-04T11:14:13;101514.13;;;10.29;89.46
6144;BME280;3103;49.492;8.474;2024-02-04T11:22:44;101500.44;;;10.44;88.52
6144;BME280;3103;49.492;8.474;2024-02-04T11:27:57;101503.72;;;10.46;88.22
6144;BME280;3103;49.492;8.474;2024-02-04T11:30:24;101495.50;;;10.34;89.29
6144;BME280;3103;49.492;8.474;2024-02-04T11:32:51;101478.09;;;10.50;88.39
6144;BME280;3103;49.492;8.474;2024-02-04T11:35:20;101468.97;;;10.51;88.96
6144;BME280;3103;49.492;8.474;2024-02-04T11:37:47;101474.41;;;10.37;88.60
6144;BME280;3103;49.492;8.474;2024-02-04T11:40:15;101467.34;;;10.50;87.95
6144;BME280;3103;49.492;8.474;2024-02-04T11:42:46;101464.88;;;10.48;88.48
6144;BME280;3103;49.492;8.474;2024-02-04T11:45:13;101452.47;;;10.47;89.12
6144;BME280;3103;49.492;8.474;2024-02-04T11:47:41;101452.84;;;10.51;88.76
6144;BME280;3103;49.492;8.474;2024-02-04T11:50:09;101460.91;;;10.57;88.42
6144;BME280;3103;49.492;8.474;2024-02-04T11:52:39;101459.31;;;10.43;88.58
6144;BME280;3103;49.492;8.474;2024-02-04T11:55:13;101452.03;;;10.50;88.96
6144;BME280;3103;49.492;8.474;2024-02-04T11:57:40;101445.41;;;10.53;88.40
6144;BME280;3103;49.492;8.474;2024-02-04T12:00:08;101436.53;;;10.52;88.88
6144;BME280;3103;49.492;8.474;2024-02-04T12:02:37;101443.47;;;10.66;88.36
6144;BME280;3103;49.492;8.474;2024-02-04T12:05:05;101427.34;;;10.66;88.44
6144;BME280;3103;49.492;8.474;2024-02-04T12:07:32;101431.44;;;10.76;87.72
6144;BME280;3103;49.492;8.474;2024-02-04T12:09:59;101438.41;;;10.83;87.69
6144;BME280;3103;49.492;8.474;2024-02-04T12:12:28;101441.28;;;10.88;86.54
6144;BME280;3103;49.492;8.474;2024-02-04T12:14:56;101447.19;;;10.65;87.41
6144;BME280;3103;49.492;8.474;2024-02-04T12:17:23;101451.47;;;10.80;87.65
6144;BME280;3103;49.492;8.474;2024-02-04T12:19:51;101438.81;;;10.87;87.09
6144;BME280;3103;49.492;8.474;2024-02-04T12:22:18;101431.50;;;10.94;86.53
6144;BME280;3103;49.492;8.474;2024-02-04T12:24:45;101440.63;;;10.93;86.46
6144;BME280;3103;49.492;8.474;2024-02-04T12:27:15;101436.03;;;11.00;86.18
6144;BME280;3103;49.492;8.474;2024-02-04T12:29:43;101438.00;;;11.11;85.45
6144;BME280;3103;49.492;8.474;2024-02-04T12:32:13;101431.69;;;10.99;85.66
6144;BME280;3103;49.492;8.474;2024-02-04T12:34:40;101420.22;;;11.10;85.26
6144;BME280;3103;49.492;8.474;2024-02-04T12:37:07;101427.47;;;10.85;86.37
6144;BME280;3103;49.492;8.474;2024-02-04T12:39:34;101434.41;;;10.99;85.71
6144;BME280;3103;49.492;8.474;2024-02-04T12:42:01;101433.16;;;10.95;86.79
6144;BME280;3103;49.492;8.474;2024-02-04T12:44:28;101436.25;;;10.98;86.40
6144;BME280;3103;49.492;8.474;2024-02-04T12:46:56;101434.41;;;10.92;86.66
6144;BME280;3103;49.492;8.474;2024-02-04T12:49:23;101433.00;;;10.90;87.51
6144;BME280;3103;49.492;8.474;2024-02-04T12:51:50;101443.91;;;10.95;87.33
6144;BME280;3103;49.492;8.474;2024-02-04T12:54:19;101431.59;;;10.81;87.47
6144;BME280;3103;49.492;8.474;2024-02-04T12:56:51;101416.13;;;10.76;88.29
6144;BME280;3103;49.492;8.474;2024-02-04T12:59:28;101414.78;;;10.92;87.45
6144;BME280;3103;49.492;8.474;2024-02-04T13:02:02;101421.34;;;10.96;87.49
6144;BME280;3103;49.492;8.474;2024-02-04T13:04:35;101418.38;;;10.79;88.10
6144;BME280;3103;49.492;8.474;2024-02-04T13:07:07;101400.03;;;10.69;88.74
6144;BME280;3103;49.492;8.474;2024-02-04T13:09:36;101402.31;;;10.73;88.72
6144;BME280;3103;49.492;8.474;2024-02-04T13:12:06;101408.31;;;10.68;89.49
6144;BME280;3103;49.492;8.474;2024-02-04T13:14:37;101406.44;;;10.68;89.12
6144;BME280;3103;49.492;8.474;2024-02-04T13:17:05;101404.56;;;10.76;88.65
6144;BME280;3103;49.492;8.474;2024-02-04T13:19:36;101412.63;;;10.76;88.76
6144;BME280;3103;49.492;8.474;2024-02-04T13:22:07;101413.91;;;10.66;88.83
6144;BME280;3103;49.492;8.474;2024-02-04T13:24:37;101404.19;;;10.65;89.29
6144;BME280;3103;49.492;8.474;2024-02-04T13:27:05;101409.13;;;10.68;89.01
6144;BME280;3103;49.492;8.474;2024-02-04T13:29:34;101394.66;;;10.69;89.34
6144;BME280;3103;49.492;8.474;2024-02-04T13:32:01;101393.59;;;10.77;89.10